Time;durP1;ratioP1;P1;durP2;ratioP2;P2;SDS_P1;SDS_P2;PMS_P1;PMS_P2;Temp;Humidity;BMP_temperature;BMP_pressure;BME280_temperature;BME280_humidity;BME280_pressure;Samples;Min_cycle;Max_cycle;Signal;HPM_P1;HPM_P2
2023/09/12 00:04:50;;;;;;;13.20;12.00;;;20.70;99.90;;;;;;5035866;28;20490;-78
2023/09/12 00:11:17;;;;;;;14.13;12.23;;;20.60;99.90;;;;;;5038765;28;20490;-78
2023/09/12 00:17:53;;;;;;;15.47;14.07;;;20.60;99.90;;;;;;4956616;28;20493;-78
2023/09/12 00:24:06;;;;;;;15.60;13.10;;;20.40;99.90;;;;;;4983888;28;20488;-78
2023/09/12 00:27:09;;;;;;;17.17;13.03;;;20.40;99.90;;;;;;5042859;28;20450;-79
2023/09/12 00:30:16;;;;;;;;;;;;;;;;;;;;;
2023/09/12 00:32:58;;;;;;;13.63;12.33;;;20.40;99.90;;;;;;5040942;28;20450;-79
2023/09/12 00:35:45;;;;;;;14.70;13.03;;;20.30;99.90;;;;;;5040395;28;20466;-79
2023/09/12 00:48:30;;;;;;;14.70;12.33;;;20.30;99.90;;;;;;4979179;28;20593;-78
2023/09/12 00:54:18;;;;;;;15.43;14.00;;;20.20;99.90;;;;;;5041123;28;20610;-78
2023/09/12 01:03:41;;;;;;;15.77;13.90;;;20.10;99.90;;;;;;5042147;28;20421;-79
2023/09/12 02:06:54;;;;;;;14.23;12.87;;;19.40;99.90;;;;;;5037721;28;20417;-79
2023/09/12 02:09:42;;;;;;;13.43;12.13;;;19.30;99.90;;;;;;5056076;28;20422;-78
2023/09/12 02:12:23;;;;;;;18.50;12.77;;;19.30;99.90;;;;;;5056654;28;20449;-78
2023/09/12 02:15:08;;;;;;;14.50;13.10;;;19.20;99.90;;;;;;5058878;28;20477;-78
2023/09/12 02:23:46;;;;;;;14.83;13.33;;;19.20;99.90;;;;;;5041708;28;20445;-79
2023/09/12 02:30:04;;;;;;;16.00;12.93;;;19.20;99.90;;;;;;5062147;28;20438;-79
2023/09/12 02:32:59;;;;;;;15.03;13.53;;;19.10;99.90;;;;;;5061288;28;20461;-79
2023/09/12 02:35:45;;;;;;;14.73;13.23;;;18.90;99.90;;;;;;5058664;28;20466;-78
2023/09/12 02:38:21;;;;;;;15.30;13.60;;;19.10;99.90;;;;;;5056619;28;20476;-80
2023/09/12 02:41:05;;;;;;;14.87;13.37;;;19.30;99.90;;;;;;5055286;28;20465;-79
2023/09/12 02:49:39;;;;;;;14.90;13.53;;;19.00;99.90;;;;;;5023799;28;20935;-78
2023/09/12 02:52:17;;;;;;;16.40;14.67;;;18.90;99.90;;;;;;5056278;28;20545;-79
2023/09/12 02:55:08;;;;;;;17.17;15.00;;;18.90;99.90;;;;;;5056549;28;20458;-79
2023/09/12 02:58:07;;;;;;;16.03;14.47;;;18.90;99.90;;;;;;5056436;28;20426;-79
2023/09/12 03:03:57;;;;;;;16.13;14.47;;;18.90;99.90;;;;;;5053581;28;20449;-79
2023/09/12 03:09:58;;;;;;;18.70;14.20;;;18.80;99.90;;;;;;5052807;28;20445;-80
2023/09/12 03:12:36;;;;;;;16.53;14.87;;;18.80;99.90;;;;;;5055513;28;20488;-79
2023/09/12 03:15:20;;;;;;;15.70;14.20;;;18.90;99.90;;;;;;5053595;28;20519;-79
2023/09/12 03:21:14;;;;;;;19.60;15.07;;;18.80;99.90;;;;;;5052513;28;20452;-80
2023/09/12 03:26:58;;;;;;;15.50;14.00;;;18.80;99.90;;;;;;5056500;28;20513;-79
2023/09/12 03:29:50;;;;;;;16.00;14.30;;;18.60;99.90;;;;;;5057388;28;20521;-79
2023/09/12 03:32:37;;;;;;;19.23;15.20;;;18.60;99.90;;;;;;5058696;28;20487;-79
2023/09/12 03:38:43;;;;;;;15.87;13.40;;;18.40;99.90;;;;;;5044889;28;20491;-79
2023/09/12 03:41:25;;;;;;;15.17;13.77;;;18.40;99.90;;;;;;5055045;28;20484;-78
2023/09/12 03:44:07;;;;;;;17.80;13.70;;;18.30;99.90;;;;;;5054395;28;20565;-79
2023/09/12 03:46:46;;;;;;;14.80;13.40;;;18.30;99.90;;;;;;5056220;28;20496;-79
2023/09/12 03:50:03;;;;;;;18.40;14.27;;;18.40;99.90;;;;;;5057285;28;20452;-80
2023/09/12 03:56:04;;;;;;;16.07;14.00;;;18.40;99.90;;;;;;5054410;28;20466;-79
2023/09/12 04:02:16;;;;;;;15.50;14.00;;;18.40;99.90;;;;;;5052462;28;20453;-79
2023/09/12 04:11:41;;;;;;;15.53;13.97;;;18.30;99.90;;;;;;5070780;28;20421;-79
2023/09/12 04:17:13;;;;;;;18.90;14.50;;;18.30;99.90;;;;;;5071119;28;20471;-79
2023/09/12 04:20:03;;;;;;;19.83;14.83;;;18.30;99.90;;;;;;5077970;28;20416;-79
2023/09/12 04:23:01;;;;;;;17.00;14.40;;;18.30;99.90;;;;;;5077623;28;20556;-79
2023/09/12 04:26:00;;;;;;;16.27;14.77;;;18.30;99.90;;;;;;5076453;28;21004;-79
2023/09/12 04:28:51;;;;;;;16.33;14.47;;;18.30;99.90;;;;;;5078911;28;20959;-79
2023/09/12 04:31:49;;;;;;;15.20;13.70;;;18.30;99.90;;;;;;5079179;28;20541;-80
2023/09/12 04:34:46;;;;;;;16.27;14.43;;;18.30;99.90;;;;;;5078792;28;20552;-79
2023/09/12 04:40:20;;;;;;;16.77;15.10;;;18.20;99.90;;;;;;5082933;28;20436;-79
2023/09/12 04:43:01;;;;;;;17.40;15.57;;;18.30;99.90;;;;;;5086679;28;20444;-79
2023/09/12 04:45:45;;;;;;;15.60;13.90;;;18.20;99.90;;;;;;5089737;28;20552;-79
2023/09/12 04:48:29;;;;;;;16.00;14.40;;;18.30;99.90;;;;;;5083685;28;20437;-79
2023/09/12 04:51:03;;;;;;;15.33;13.83;;;18.30;99.90;;;;;;5076538;28;20881;-80
2023/09/12 04:53:56;;;;;;;;;;;;;;;;;;;;;
2023/09/12 04:56:39;;;;;;;16.87;14.57;;;18.30;99.90;;;;;;5078292;28;20428;-80
2023/09/12 04:59:19;;;;;;;18.90;17.30;;;18.30;99.90;;;;;;5078017;28;20444;-79
2023/09/12 05:02:23;;;;;;;16.63;15.00;;;18.30;99.90;;;;;;5079573;28;20448;-81
2023/09/12 05:05:42;;;;;;;16.70;15.00;;;18.30;99.90;;;;;;5083436;28;20480;-80
2023/09/12 05:20:50;;;;;;;20.37;15.00;;;18.20;99.90;;;;;;5065280;28;20817;-80
2023/09/12 05:26:32;;;;;;;16.70;15.10;;;18.30;99.90;;;;;;5081545;28;20491;-80
2023/09/12 05:29:16;;;;;;;21.07;15.33;;;18.40;99.90;;;;;;5088966;28;20452;-79
2023/09/12 05:32:04;;;;;;;16.37;15.00;;;18.40;99.90;;;;;;5085166;28;20479;-80
2023/09/12 05:35:01;;;;;;;16.60;14.00;;;18.50;99.90;;;;;;5089709;28;20500;-81
2023/09/12 05:37:43;;;;;;;17.40;15.53;;;18.40;99.90;;;;;;5089090;28;20445;-79
2023/09/12 05:40:17;;;;;;;49.50;39.43;;;18.40;99.90;;;;;;5087236;28;20441;-81
2023/09/12 05:43:03;;;;;;;18.70;16.80;;;18.40;99.90;;;;;;5080100;28;20447;-79
2023/09/12 05:45:50;;;;;;;23.80;17.50;;;18.40;99.90;;;;;;5080627;28;20504;-80
2023/09/12 05:48:29;;;;;;;16.53;14.53;;;18.60;99.90;;;;;;5078888;28;20459;-80
2023/09/12 05:51:33;;;;;;;16.83;15.07;;;18.70;99.90;;;;;;5080146;28;20453;-81
2023/09/12 05:54:56;;;;;;;16.57;14.87;;;18.80;99.90;;;;;;5080172;28;20476;-80
2023/09/12 06:00:28;;;;;;;15.93;13.93;;;19.00;99.90;;;;;;5045747;28;20830;-80
2023/09/12 06:03:28;;;;;;;16.33;14.73;;;19.10;99.90;;;;;;5050506;28;20538;-82
2023/09/12 06:16:17;;;;;;;15.70;14.20;;;19.30;99.90;;;;;;5003833;28;20452;-80
2023/09/12 06:19:08;;;;;;;16.10;14.67;;;19.40;99.90;;;;;;5058236;28;20457;-80
2023/09/12 06:25:01;;;;;;;17.63;14.13;;;19.40;99.90;;;;;;5039669;28;20475;-79
2023/09/12 06:27:38;;;;;;;18.57;12.77;;;19.40;99.90;;;;;;5061157;28;20511;-80
2023/09/12 06:33:23;;;;;;;15.40;13.60;;;19.50;99.90;;;;;;5059041;28;20471;-80
2023/09/12 06:36:13;;;;;;;16.67;14.50;;;19.60;99.90;;;;;;5057223;28;20533;-80
2023/09/12 06:39:02;;;;;;;16.57;13.97;;;19.60;99.90;;;;;;5058073;28;20446;-80
2023/09/12 06:42:10;;;;;;;15.57;13.67;;;19.60;99.90;;;;;;5058699;28;20453;-79
2023/09/12 06:44:45;;;;;;;15.27;13.80;;;19.60;99.90;;;;;;5057442;28;20484;-79
2023/09/12 06:47:20;;;;;;;15.90;14.20;;;19.70;99.90;;;;;;5059576;28;20453;-81
2023/09/12 06:53:05;;;;;;;15.27;13.77;;;19.90;99.90;;;;;;5058328;28;20517;-78
2023/09/12 06:55:38;;;;;;;16.30;13.97;;;20.00;99.90;;;;;;5066757;28;20448;-80
2023/09/12 06:58:22;;;;;;;15.70;14.10;;;20.10;99.90;;;;;;5072265;28;20425;-81
2023/09/12 07:00:57;;;;;;;16.03;13.80;;;20.10;99.90;;;;;;5070503;28;20464;-79
2023/09/12 07:03:59;;;;;;;;;;;;;;;;;;;;;
2023/09/12 07:06:47;;;;;;;15.43;13.93;;;20.30;99.90;;;;;;5068026;28;20472;-79
2023/09/12 07:09:19;;;;;;;16.13;14.63;;;20.30;99.90;;;;;;5066043;28;20469;-79
2023/09/12 07:12:05;;;;;;;16.87;14.60;;;20.40;99.90;;;;;;5061752;28;20454;-81
2023/09/12 07:14:51;;;;;;;19.07;14.67;;;20.40;99.90;;;;;;5063136;28;20492;-80
2023/09/12 07:20:27;;;;;;;17.83;14.23;;;20.60;99.90;;;;;;5060443;28;21000;-81
2023/09/12 07:23:07;;;;;;;15.93;14.57;;;20.60;99.90;;;;;;5061985;28;20441;-79
2023/09/12 07:25:59;;;;;;;18.33;14.20;;;20.90;99.90;;;;;;5060464;28;20554;-80
2023/09/12 07:28:49;;;;;;;15.37;13.97;;;21.20;99.90;;;;;;5059964;28;20410;-80
2023/09/12 07:31:47;;;;;;;16.27;14.80;;;21.30;99.90;;;;;;5059500;28;20565;-81
2023/09/12 07:34:48;;;;;;;14.97;13.47;;;21.20;99.90;;;;;;5060710;28;20464;-79
2023/09/12 07:37:33;;;;;;;15.93;13.70;;;21.30;99.90;;;;;;5061386;28;20458;-80
2023/09/12 07:40:09;;;;;;;14.93;13.43;;;21.40;99.90;;;;;;5062884;28;20502;-79
2023/09/12 07:45:53;;;;;;;16.63;13.20;;;21.60;99.90;;;;;;5061497;28;20497;-79
2023/09/12 07:48:27;;;;;;;18.23;13.07;;;21.90;99.90;;;;;;5063258;28;20468;-79
2023/09/12 07:51:22;;;;;;;14.93;13.43;;;22.30;99.90;;;;;;5062954;28;21110;-80
2023/09/12 07:54:03;;;;;;;13.40;12.13;;;22.40;99.90;;;;;;5062331;28;21131;-79
2023/09/12 07:56:35;;;;;;;15.20;12.97;;;22.70;99.90;;;;;;5063435;28;20985;-79
2023/09/12 07:59:14;;;;;;;14.10;12.53;;;22.70;99.90;;;;;;5064842;28;20450;-79
2023/09/12 08:01:48;;;;;;;14.27;12.93;;;23.00;99.90;;;;;;5064642;28;20450;-81
2023/09/12 08:04:27;;;;;;;16.07;13.27;;;23.10;99.90;;;;;;5080922;28;20964;-79
2023/09/12 08:06:59;;;;;;;13.70;12.50;;;23.20;99.90;;;;;;5081808;28;20514;-79
2023/09/12 08:09:50;;;;;;;17.53;11.97;;;23.20;99.90;;;;;;5082730;28;20453;-79
2023/09/12 08:12:20;;;;;;;13.73;12.53;;;23.30;99.90;;;;;;5080741;28;20478;-79
2023/09/12 08:14:51;;;;;;;14.77;13.37;;;23.50;99.90;;;;;;5079496;28;20505;-80
2023/09/12 08:17:38;;;;;;;13.87;12.20;;;23.50;99.90;;;;;;5077059;28;20457;-80
2023/09/12 08:20:20;;;;;;;15.60;13.53;;;23.90;99.90;;;;;;5073844;28;20506;-80
2023/09/12 08:22:52;;;;;;;13.63;12.37;;;23.80;99.90;;;;;;5074604;28;20471;-79
2023/09/12 08:25:25;;;;;;;13.27;11.97;;;23.80;99.90;;;;;;5075074;28;20548;-79
2023/09/12 08:27:54;;;;;;;13.03;11.93;;;23.80;99.90;;;;;;5075089;28;20444;-81
2023/09/12 08:30:25;;;;;;;17.03;12.73;;;23.90;99.90;;;;;;5075832;28;20519;-80
2023/09/12 08:33:03;;;;;;;20.73;13.57;;;24.10;99.90;;;;;;5075588;28;20453;-79
2023/09/12 08:38:35;;;;;;;14.97;13.37;;;24.10;99.90;;;;;;5073249;28;20432;-79
2023/09/12 08:41:46;;;;;;;14.47;12.97;;;24.20;99.90;;;;;;5059155;28;20439;-79
2023/09/12 08:47:43;;;;;;;18.40;13.90;;;24.60;99.90;;;;;;5044970;28;20843;-81
2023/09/12 08:53:14;;;;;;;18.30;14.13;;;25.40;99.90;;;;;;5054098;28;20454;-82
2023/09/12 08:55:48;;;;;;;15.47;13.87;;;25.80;99.90;;;;;;5062609;28;20465;-80
2023/09/12 08:58:21;;;;;;;15.13;13.57;;;25.90;99.90;;;;;;5063504;28;20964;-81
2023/09/12 09:01:10;;;;;;;14.37;13.13;;;26.10;99.90;;;;;;5061632;28;20465;-80
2023/09/12 09:03:53;;;;;;;14.50;13.00;;;26.30;99.90;;;;;;5054697;28;20449;-80
2023/09/12 09:07:00;;;;;;;14.73;13.33;;;26.70;99.90;;;;;;5062320;28;20546;-81
2023/09/12 09:09:42;;;;;;;13.60;12.30;;;26.90;99.90;;;;;;5059248;28;20540;-83
2023/09/12 09:12:19;;;;;;;13.47;12.17;;;27.10;99.90;;;;;;5071495;28;20468;-80
2023/09/12 09:15:01;;;;;;;;;;;;;;;;;;;;;
2023/09/12 09:17:49;;;;;;;13.73;12.43;;;27.40;99.90;;;;;;5061222;28;20533;-82
2023/09/12 09:20:38;;;;;;;14.73;12.10;;;27.50;99.90;;;;;;5061312;28;21027;-81
2023/09/12 09:23:35;;;;;;;13.67;12.40;;;27.60;99.90;;;;;;5059650;28;20442;-81
2023/09/12 09:26:37;;;;;;;14.80;11.93;;;27.70;99.90;;;;;;5061487;28;20501;-81
2023/09/12 09:29:19;;;;;;;13.70;12.33;;;28.10;99.90;;;;;;5065837;28;20500;-81
2023/09/12 09:32:12;;;;;;;14.83;11.97;;;28.10;99.90;;;;;;5061688;28;20479;-82
2023/09/12 09:35:09;;;;;;;14.63;12.20;;;27.90;99.90;;;;;;5060865;28;20495;-81
2023/09/12 09:45:00;;;;;;;14.13;12.63;;;29.10;99.90;;;;;;4999434;28;20448;-81
2023/09/12 09:48:28;;;;;;;13.70;12.30;;;29.50;99.90;;;;;;5060179;28;20481;-80
2023/09/12 09:51:45;;;;;;;14.83;12.73;;;29.80;99.90;;;;;;5060904;28;20479;-79
2023/09/12 09:55:05;;;;;;;13.53;11.80;;;29.90;99.90;;;;;;5060491;28;20470;-80
2023/09/12 09:58:19;;;;;;;13.57;12.23;;;30.30;99.90;;;;;;5060341;28;20454;-81
2023/09/12 10:01:23;;;;;;;12.40;11.30;;;30.90;99.90;;;;;;5055026;28;20450;-80
2023/09/12 10:04:37;;;;;;;;;;;;;;;;;;;;;
2023/09/12 10:07:28;;;;;;;14.27;11.00;;;31.10;99.90;;;;;;5063163;28;20496;-82
2023/09/12 10:10:03;;;;;;;12.13;10.80;;;31.10;99.90;;;;;;5063483;28;20460;-81
2023/09/12 10:12:32;;;;;;;12.57;11.47;;;31.20;99.90;;;;;;5063564;28;20459;-80
2023/09/12 10:15:07;;;;;;;11.30;10.30;;;31.10;99.90;;;;;;5065924;28;20481;-82
2023/09/12 10:17:39;;;;;;;12.57;11.47;;;31.30;99.90;;;;;;5064480;28;20484;-78
2023/09/12 10:20:21;;;;;;;14.23;12.80;;;31.20;99.90;;;;;;5066060;28;20911;-81
2023/09/12 10:23:03;;;;;;;12.60;11.53;;;31.10;99.90;;;;;;5066798;28;20442;-80
2023/09/12 10:25:49;;;;;;;12.67;11.50;;;31.30;99.90;;;;;;5065110;28;20558;-82
2023/09/12 10:28:35;;;;;;;12.90;11.60;;;31.90;99.90;;;;;;5064042;28;20454;-81
2023/09/12 10:31:10;;;;;;;11.90;10.80;;;32.00;99.90;;;;;;5064665;28;20510;-82
2023/09/12 10:33:45;;;;;;;10.60;9.67;;;32.30;99.90;;;;;;5065712;28;20491;-82
2023/09/12 10:36:23;;;;;;;12.23;10.87;;;32.30;99.90;;;;;;5063451;28;20495;-84
2023/09/12 10:38:54;;;;;;;12.33;10.17;;;32.70;99.90;;;;;;5065650;28;20453;-82
2023/09/12 10:41:25;;;;;;;11.73;10.63;;;32.90;99.90;;;;;;5065804;28;20450;-84
2023/09/12 10:44:02;;;;;;;11.80;10.60;;;;;;;;;;5068793;28;20974;-82
2023/09/12 10:46:54;;;;;;;14.93;13.57;;;32.90;99.90;;;;;;5068069;28;20473;-81
2023/09/12 10:49:34;;;;;;;14.23;12.90;;;32.30;99.90;;;;;;5068217;28;20521;-82
2023/09/12 10:52:33;;;;;;;21.03;18.43;;;32.40;99.90;;;;;;5071211;28;20437;-78
2023/09/12 10:55:17;;;;;;;10.70;9.70;;;33.10;99.90;;;;;;5076178;28;20458;-80
2023/09/12 10:58:13;;;;;;;9.83;9.03;;;32.90;99.90;;;;;;5075976;28;20529;-79
2023/09/12 11:00:47;;;;;;;10.00;9.00;;;;;;;;;;5068553;28;20461;-81
2023/09/12 11:09:41;;;;;;;9.20;8.40;;;;;;;;;;5060556;28;20479;-83
2023/09/12 11:12:36;;;;;;;9.60;8.67;;;;;;;;;;5067249;28;20442;-81
2023/09/12 11:15:10;;;;;;;9.43;8.63;;;;;;;;;;5064859;28;20461;-81
2023/09/12 11:17:55;;;;;;;10.77;9.87;;;;;;;;;;5067980;28;20441;-81
2023/09/12 11:20:27;;;;;;;10.33;9.23;;;34.20;97.70;;;;;;5063851;28;20504;-82
2023/09/12 11:26:30;;;;;;;9.20;8.30;;;33.70;97.70;;;;;;5062341;28;20448;-82
2023/09/12 11:35:43;;;;;;;10.20;9.40;;;35.10;94.80;;;;;;5008739;28;20527;-81
2023/09/12 11:38:28;;;;;;;9.30;8.60;;;;;;;;;;5004638;28;20451;-81
2023/09/12 11:41:16;;;;;;;9.37;8.57;;;35.70;93.50;;;;;;5008278;28;20448;-84
2023/09/12 11:47:20;;;;;;;11.17;9.43;;;35.80;92.60;;;;;;5057185;28;20476;-80
2023/09/12 11:50:19;;;;;;;9.83;8.93;;;35.40;92.30;;;;;;5058788;28;20529;-79
2023/09/12 11:53:10;;;;;;;9.80;9.03;;;35.40;92.60;;;;;;5053974;28;20458;-80
2023/09/12 11:56:10;;;;;;;9.63;8.83;;;35.80;91.70;;;;;;5053369;28;20474;-79
2023/09/12 11:59:01;;;;;;;10.77;9.63;;;36.00;91.40;;;;;;5053451;28;20479;-79
2023/09/12 12:01:57;;;;;;;9.63;8.80;;;36.10;91.60;;;;;;5052923;28;20457;-79
2023/09/12 12:04:34;;;;;;;11.07;9.53;;;;;;;;;;5052717;28;20484;-81
2023/09/12 12:07:06;;;;;;;9.83;8.83;;;;;;;;;;5052894;28;20477;-80
2023/09/12 12:10:03;;;;;;;9.70;9.00;;;35.40;90.60;;;;;;5053172;28;20449;-79
2023/09/12 12:13:08;;;;;;;13.87;9.10;;;35.30;91.20;;;;;;5050749;28;20532;-81
2023/09/12 12:16:05;;;;;;;10.00;9.10;;;35.60;90.80;;;;;;5051610;28;20484;-79
2023/09/12 12:18:46;;;;;;;8.97;8.20;;;35.90;90.30;;;;;;5052589;28;20449;-81
2023/09/12 12:21:31;;;;;;;9.57;8.67;;;35.70;89.60;;;;;;5054322;28;20487;-80
2023/09/12 12:27:04;;;;;;;8.53;7.83;;;35.70;87.90;;;;;;5054803;28;21177;-82
2023/09/12 12:29:40;;;;;;;11.37;8.50;;;36.00;87.50;;;;;;5056870;28;20499;-81
2023/09/12 12:32:26;;;;;;;8.30;7.50;;;36.10;86.50;;;;;;5056936;28;20456;-83
2023/09/12 12:34:57;;;;;;;8.80;8.00;;;;;;;;;;5056921;28;20475;-80
2023/09/12 12:37:37;;;;;;;9.67;8.00;;;36.40;84.10;;;;;;5055936;28;20874;-81
2023/09/12 12:40:16;;;;;;;7.70;7.10;;;36.00;83.90;;;;;;5056410;28;20453;-80
2023/09/12 12:42:46;;;;;;;8.37;7.50;;;36.40;83.20;;;;;;5055747;28;20469;-79
2023/09/12 12:45:21;;;;;;;9.23;8.43;;;36.40;83.80;;;;;;5055656;28;20492;-80
2023/09/12 12:47:59;;;;;;;8.50;7.87;;;36.00;82.60;;;;;;5056935;28;20473;-82
2023/09/12 12:50:30;;;;;;;8.37;7.50;;;36.30;80.90;;;;;;5055794;28;20503;-79
2023/09/12 12:53:18;;;;;;;8.40;7.50;;;36.50;80.10;;;;;;5056050;28;20441;-81
2023/09/12 12:55:57;;;;;;;7.77;7.10;;;36.40;79.40;;;;;;5056309;28;20514;-80
2023/09/12 12:58:42;;;;;;;10.37;7.60;;;36.30;78.60;;;;;;5056907;28;20536;-80
2023/09/12 13:01:30;;;;;;;7.60;6.90;;;36.20;78.60;;;;;;5057496;28;20504;-81
2023/09/12 13:04:17;;;;;;;8.30;7.57;;;35.90;79.80;;;;;;5038293;28;20462;-80
2023/09/12 13:07:03;;;;;;;7.07;6.43;;;34.70;81.60;;;;;;5036303;28;20478;-80
2023/09/12 13:09:41;;;;;;;7.93;7.13;;;34.90;82.10;;;;;;5036460;28;20469;-82
2023/09/12 13:12:24;;;;;;;9.30;7.80;;;35.20;81.40;;;;;;5036439;28;20802;-82
2023/09/12 13:14:57;;;;;;;8.30;7.47;;;34.70;81.00;;;;;;5036141;28;20565;-82
2023/09/12 13:17:36;;;;;;;8.30;6.53;;;34.60;82.20;;;;;;5035666;28;20446;-81
2023/09/12 13:20:13;;;;;;;8.00;7.27;;;35.00;81.50;;;;;;5036178;28;20462;-79
2023/09/12 13:22:44;;;;;;;11.10;7.20;;;35.50;79.90;;;;;;5039796;28;21076;-80
2023/09/12 13:25:19;;;;;;;9.50;7.30;;;35.70;79.30;;;;;;5043452;28;20494;-81
2023/09/12 13:27:52;;;;;;;7.87;7.17;;;35.40;79.10;;;;;;5043467;28;20541;-81
2023/09/12 13:30:20;;;;;;;8.00;7.40;;;35.30;79.60;;;;;;5046018;28;20831;-80
2023/09/12 13:33:08;;;;;;;9.20;8.27;;;34.90;80.20;;;;;;5045187;28;21016;-81
2023/09/12 13:35:51;;;;;;;11.00;7.87;;;34.70;81.00;;;;;;5045939;28;20470;-81
2023/09/12 13:38:29;;;;;;;9.00;7.40;;;35.00;80.80;;;;;;5045618;28;20478;-81
2023/09/12 13:41:14;;;;;;;8.33;7.73;;;35.50;80.20;;;;;;5044213;28;20469;-79
2023/09/12 13:43:49;;;;;;;8.00;7.30;;;35.50;79.10;;;;;;5048691;28;20500;-80
2023/09/12 13:46:32;;;;;;;9.00;8.27;;;35.40;77.00;;;;;;5054251;28;20474;-82
2023/09/12 13:49:12;;;;;;;8.50;7.63;;;35.40;77.70;;;;;;5052518;28;20497;-80
2023/09/12 13:51:46;;;;;;;7.57;6.97;;;35.10;77.30;;;;;;5054363;28;20509;-80
2023/09/12 13:54:16;;;;;;;7.80;7.10;;;35.40;76.70;;;;;;5048291;28;20470;-81
2023/09/12 13:56:58;;;;;;;8.63;7.93;;;36.00;77.10;;;;;;5048128;28;20470;-80
2023/09/12 13:59:36;;;;;;;9.90;7.63;;;36.00;77.10;;;;;;5046767;28;20450;-80
2023/09/12 14:02:06;;;;;;;8.83;7.60;;;35.80;77.90;;;;;;5050608;28;20476;-79
2023/09/12 14:07:35;;;;;;;10.00;8.40;;;35.60;78.70;;;;;;5041815;28;20566;-80
2023/09/12 14:10:10;;;;;;;9.37;8.37;;;34.50;81.20;;;;;;5045956;28;20438;-81
2023/09/12 14:13:02;;;;;;;8.97;8.20;;;34.30;81.70;;;;;;5044163;28;20460;-81
2023/09/12 14:15:30;;;;;;;8.93;8.00;;;34.80;81.90;;;;;;5048851;28;20494;-81
2023/09/12 14:17:59;;;;;;;11.87;8.70;;;35.30;81.70;;;;;;5049592;28;20451;-81
2023/09/12 14:20:41;;;;;;;9.27;8.40;;;35.30;81.60;;;;;;5050358;28;20434;-81
2023/09/12 14:23:22;;;;;;;8.70;8.10;;;35.10;82.00;;;;;;5049236;28;20442;-82
2023/09/12 14:25:58;;;;;;;11.67;9.10;;;34.50;83.00;;;;;;5048176;28;20462;-79
2023/09/12 14:31:15;;;;;;;9.33;8.63;;;;;;;;;;5045339;28;20789;-81
2023/09/12 14:33:54;;;;;;;8.93;8.13;;;33.90;85.30;;;;;;5046418;28;20474;-82
2023/09/12 14:36:34;;;;;;;10.53;8.57;;;34.00;84.40;;;;;;5044102;28;20450;-83
2023/09/12 14:39:17;;;;;;;9.97;9.17;;;34.00;84.70;;;;;;5041866;28;20434;-83
2023/09/12 14:42:19;;;;;;;8.90;8.20;;;33.50;85.40;;;;;;5039033;28;20446;-80
2023/09/12 14:45:12;;;;;;;9.07;8.27;;;33.20;86.70;;;;;;5036612;28;20512;-79
2023/09/12 14:47:45;;;;;;;8.90;8.20;;;33.10;87.20;;;;;;5037933;28;20515;-81
2023/09/12 14:53:27;;;;;;;9.37;8.50;;;33.40;86.40;;;;;;5037558;28;20466;-80
2023/09/12 14:56:05;;;;;;;9.23;8.53;;;33.20;87.10;;;;;;5037230;28;20451;-78
2023/09/12 14:58:36;;;;;;;9.93;8.97;;;33.50;86.80;;;;;;5037710;28;20905;-81
2023/09/12 15:01:12;;;;;;;9.80;8.27;;;33.30;86.80;;;;;;5038426;28;20476;-82
2023/09/12 15:03:52;;;;;;;11.10;9.30;;;33.40;87.00;;;;;;5073320;28;20478;-82
2023/09/12 15:09:16;;;;;;;10.73;9.73;;;33.00;88.10;;;;;;5074469;28;20472;-82
2023/09/12 15:12:25;;;;;;;10.90;9.80;;;32.80;88.30;;;;;;5070846;28;21389;-82
2023/09/12 15:15:18;;;;;;;10.83;8.93;;;32.70;88.60;;;;;;5036964;28;20461;-80
2023/09/12 15:18:02;;;;;;;9.60;8.80;;;32.60;88.90;;;;;;5044523;28;20535;-83
2023/09/12 15:20:33;;;;;;;10.03;8.70;;;32.50;89.50;;;;;;5048764;28;20449;-79
2023/09/12 15:23:07;;;;;;;9.33;8.43;;;32.80;89.00;;;;;;5047211;28;20469;-82
2023/09/12 15:26:05;;;;;;;9.27;8.43;;;32.80;89.40;;;;;;5070822;28;20468;-80
2023/09/12 15:45:22;;;;;;;10.40;9.27;;;32.70;88.20;;;;;;4854825;29;20548;-79
2023/09/12 15:48:04;;;;;;;9.40;8.60;;;32.60;89.10;;;;;;4940031;28;20470;-79
2023/09/12 15:57:13;;;;;;;11.07;8.57;;;32.20;90.20;;;;;;4818669;29;20470;-82
2023/09/12 16:00:28;;;;;;;12.50;7.73;;;32.10;90.30;;;;;;4937300;29;20997;-80
2023/09/12 16:03:04;;;;;;;11.03;8.27;;;31.80;90.50;;;;;;5020046;28;20441;-80
2023/09/12 16:09:12;;;;;;;9.10;8.33;;;31.80;90.70;;;;;;5068761;28;20518;-81
2023/09/12 16:15:15;;;;;;;10.53;8.80;;;32.00;90.70;;;;;;4977802;28;20529;-81
2023/09/12 16:20:41;;;;;;;8.40;7.70;;;32.30;90.70;;;;;;5016724;28;20451;-80
2023/09/12 16:23:30;;;;;;;9.80;8.43;;;32.40;90.10;;;;;;5030662;28;20456;-80
2023/09/12 16:26:15;;;;;;;8.67;7.87;;;32.40;89.60;;;;;;5019087;28;20487;-82
2023/09/12 16:29:19;;;;;;;9.53;8.73;;;32.50;90.00;;;;;;5019127;28;20471;-81
2023/09/12 16:31:56;;;;;;;11.60;8.67;;;32.60;89.40;;;;;;5019063;28;20474;-81
2023/09/12 16:34:25;;;;;;;9.43;8.60;;;32.40;89.90;;;;;;5018639;28;21076;-83
2023/09/12 16:37:15;;;;;;;8.03;7.33;;;32.40;88.70;;;;;;5019013;28;20658;-81
2023/09/12 16:40:28;;;;;;;9.83;8.70;;;32.40;89.00;;;;;;5019228;28;20467;-80
2023/09/12 16:43:15;;;;;;;8.93;8.00;;;32.40;90.00;;;;;;5018004;28;20526;-80
2023/09/12 16:45:46;;;;;;;8.60;7.80;;;32.10;90.00;;;;;;5018923;28;20467;-82
2023/09/12 16:48:43;;;;;;;8.87;8.13;;;31.90;90.20;;;;;;5017084;28;20482;-81
2023/09/12 16:51:31;;;;;;;9.30;7.83;;;31.80;90.10;;;;;;4982393;28;20451;-82
2023/09/12 16:54:30;;;;;;;10.90;9.80;;;31.90;89.90;;;;;;5019675;28;20483;-82
2023/09/12 16:57:13;;;;;;;11.00;8.60;;;31.70;90.10;;;;;;5019916;28;20456;-84
2023/09/12 16:59:43;;;;;;;9.50;8.60;;;31.70;90.20;;;;;;5018725;28;20489;-80
2023/09/12 17:12:00;;;;;;;9.40;8.50;;;31.20;91.20;;;;;;4982471;28;20479;-82
2023/09/12 17:14:41;;;;;;;9.90;9.10;;;30.90;92.20;;;;;;5024213;28;20493;-79
2023/09/12 17:17:12;;;;;;;14.83;9.23;;;30.50;93.20;;;;;;5029808;28;20439;-79
2023/09/12 17:19:40;;;;;;;9.60;8.57;;;29.80;93.70;;;;;;5045104;28;21001;-79
2023/09/12 17:22:12;;;;;;;9.03;8.43;;;29.40;94.20;;;;;;5051621;28;20439;-79
2023/09/12 17:24:42;;;;;;;9.20;8.30;;;29.20;94.60;;;;;;5057614;28;20454;-81
2023/09/12 17:27:24;;;;;;;10.93;9.83;;;29.20;94.80;;;;;;5071442;28;20448;-78
2023/09/12 17:29:56;;;;;;;8.93;8.30;;;28.90;95.30;;;;;;5069307;28;20477;-78
2023/09/12 17:32:30;;;;;;;10.50;9.60;;;28.80;95.60;;;;;;5069744;28;20449;-79
2023/09/12 17:35:21;;;;;;;9.50;8.73;;;28.90;95.80;;;;;;5067106;28;20495;-79
2023/09/12 17:40:58;;;;;;;9.40;8.60;;;28.50;96.20;;;;;;5067070;28;20453;-79
2023/09/12 17:43:47;;;;;;;9.43;8.70;;;28.50;96.50;;;;;;5070563;28;20622;-80
2023/09/12 17:49:34;;;;;;;8.70;8.10;;;28.20;97.30;;;;;;5052563;28;20485;-81
2023/09/12 17:52:10;;;;;;;10.47;8.87;;;27.90;97.10;;;;;;5063098;28;20445;-80
2023/09/12 17:55:02;;;;;;;9.23;8.63;;;27.70;97.90;;;;;;5063820;28;20566;-79
2023/09/12 18:00:45;;;;;;;8.30;7.57;;;27.50;98.00;;;;;;5062269;28;20476;-80
2023/09/12 18:03:28;;;;;;;8.50;7.70;;;27.50;97.50;;;;;;5074970;28;20937;-80
2023/09/12 18:06:13;;;;;;;8.03;7.33;;;27.40;97.50;;;;;;5081781;28;20965;-80
2023/09/12 18:08:49;;;;;;;9.93;8.27;;;27.30;97.00;;;;;;5081085;28;20469;-81
2023/09/12 18:14:34;;;;;;;8.77;7.87;;;26.80;97.60;;;;;;5078219;28;20465;-81
2023/09/12 18:17:29;;;;;;;8.50;7.60;;;27.00;97.80;;;;;;5084344;28;20820;-81
2023/09/12 18:20:09;;;;;;;8.80;8.10;;;27.00;97.80;;;;;;5075843;28;20968;-79
2023/09/12 18:23:00;;;;;;;8.47;7.60;;;27.00;98.10;;;;;;5080322;28;20484;-80
2023/09/12 18:25:36;;;;;;;8.63;7.73;;;26.90;98.20;;;;;;5079555;28;21019;-80
2023/09/12 18:28:07;;;;;;;11.40;7.37;;;27.00;98.40;;;;;;5060178;28;20883;-80
2023/09/12 18:30:46;;;;;;;8.27;7.50;;;26.70;98.60;;;;;;5062390;28;20822;-80
2023/09/12 18:33:35;;;;;;;7.23;6.73;;;26.60;98.90;;;;;;5061804;28;20472;-82
2023/09/12 18:36:15;;;;;;;7.70;7.00;;;26.40;99.20;;;;;;5059821;28;20873;-81
2023/09/12 18:39:02;;;;;;;8.60;7.77;;;26.40;99.50;;;;;;5060598;28;20437;-80
2023/09/12 18:41:36;;;;;;;8.07;7.13;;;26.30;99.70;;;;;;5059766;28;20822;-80
2023/09/12 18:44:27;;;;;;;9.07;8.27;;;26.20;99.80;;;;;;5059351;28;20476;-80
2023/09/12 18:47:10;;;;;;;;;;;;;;;;;;;;;
2023/09/12 18:49:56;;;;;;;7.93;7.33;;;26.10;99.90;;;;;;5061364;28;20484;-82
2023/09/12 18:59:18;;;;;;;8.50;7.70;;;26.20;99.90;;;;;;4938692;29;20454;-81
2023/09/12 19:01:50;;;;;;;9.37;8.20;;;25.90;99.90;;;;;;4942642;29;20519;-81
2023/09/12 19:05:13;;;;;;;;;;;;;;;;;;;;;
2023/09/12 19:07:57;;;;;;;9.13;8.30;;;25.80;99.90;;;;;;5062418;28;21009;-79
2023/09/12 19:10:36;;;;;;;9.27;8.53;;;25.80;99.90;;;;;;5064860;28;20480;-81
2023/09/12 19:13:05;;;;;;;8.30;7.70;;;25.70;99.90;;;;;;5065115;28;20441;-82
2023/09/12 19:15:35;;;;;;;9.43;8.53;;;25.70;99.90;;;;;;5063088;28;20473;-82